createdAt,value
2024-02-13T00:01:05.470Z,2.3
2024-02-13T00:04:05.509Z,2.2
2024-02-13T00:07:05.280Z,2.2
2024-02-13T00:10:05.419Z,2.3
2024-02-13T00:13:05.226Z,2.4
2024-02-13T00:22:05.268Z,2.1
2024-02-13T00:25:05.152Z,2.2
2024-02-13T00:28:05.196Z,2.2
2024-02-13T00:31:06.841Z,2.3
2024-02-13T00:34:05.685Z,2.3
2024-02-13T00:37:05.439Z,2.4
2024-02-13T00:40:05.214Z,2.4
2024-02-13T00:43:05.120Z,2.3
2024-02-13T00:46:05.192Z,2.2
2024-02-13T00:49:05.966Z,2.2
2024-02-13T00:52:05.340Z,2.1
2024-02-13T00:55:05.149Z,2.2
2024-02-13T00:58:05.198Z,2.3
2024-02-13T01:01:05.457Z,2.2
2024-02-13T01:04:05.293Z,2.1
2024-02-13T01:07:05.226Z,2.0
2024-02-13T01:10:05.140Z,1.9
2024-02-13T01:13:05.173Z,1.8
2024-02-13T01:16:05.329Z,1.7
2024-02-13T01:19:05.862Z,1.6
2024-02-13T01:22:05.272Z,1.7
2024-02-13T01:25:05.213Z,1.7
2024-02-13T01:28:05.143Z,1.7
2024-02-13T01:31:05.492Z,1.8
2024-02-13T01:34:05.903Z,1.8
2024-02-13T01:37:05.198Z,1.9
2024-02-13T01:40:05.200Z,2.0
2024-02-13T01:43:05.144Z,2.0
2024-02-13T01:46:05.157Z,2.1
2024-02-13T01:49:06.056Z,2.1
2024-02-13T01:52:05.371Z,2.1
2024-02-13T01:55:05.290Z,2.0
2024-02-13T01:58:05.312Z,1.9
2024-02-13T02:01:05.316Z,2.0
2024-02-13T02:04:05.384Z,1.9
2024-02-13T02:07:05.789Z,1.9
2024-02-13T02:10:05.274Z,1.9
2024-02-13T02:13:05.251Z,2.0
2024-02-13T02:16:05.153Z,2.0
2024-02-13T02:19:06.044Z,2.1
2024-02-13T02:22:05.109Z,2.1
2024-02-13T02:25:05.247Z,2.1
2024-02-13T02:28:05.200Z,2.0
2024-02-13T02:31:05.181Z,1.9
2024-02-13T02:34:06.085Z,1.9
2024-02-13T02:37:05.359Z,1.8
2024-02-13T02:40:05.388Z,1.7
2024-02-13T02:43:05.185Z,1.6
2024-02-13T02:46:05.205Z,1.6
2024-02-13T02:49:05.721Z,1.6
2024-02-13T02:52:05.209Z,1.8
2024-02-13T02:55:05.322Z,1.8
2024-02-13T02:58:05.149Z,1.9
2024-02-13T03:01:05.340Z,2.0
2024-02-13T03:04:08.299Z,2.0
2024-02-13T03:07:05.639Z,2.1
2024-02-13T03:10:05.295Z,1.9
2024-02-13T03:13:05.135Z,1.8
2024-02-13T03:16:05.197Z,1.8
2024-02-13T03:19:06.154Z,2.0
2024-02-13T03:22:05.242Z,2.0
2024-02-13T03:25:05.344Z,2.1
2024-02-13T03:28:05.111Z,2.1
2024-02-13T03:31:05.253Z,2.1
2024-02-13T03:43:05.554Z,1.7
2024-02-13T03:46:05.096Z,1.8
2024-02-13T03:49:05.832Z,1.8
2024-02-13T03:52:05.399Z,1.7
2024-02-13T03:55:05.269Z,1.8
2024-02-13T03:58:05.182Z,1.8
2024-02-13T04:01:05.553Z,1.8
2024-02-13T04:04:05.238Z,1.8
2024-02-13T04:07:05.669Z,1.9
2024-02-13T04:10:05.245Z,1.9
2024-02-13T04:13:05.200Z,1.9
2024-02-13T04:16:05.281Z,1.8
2024-02-13T04:19:05.750Z,1.8
2024-02-13T04:22:05.288Z,1.9
2024-02-13T04:25:05.204Z,1.9
2024-02-13T04:28:05.157Z,1.8
2024-02-13T04:31:05.487Z,1.8
2024-02-13T04:34:06.168Z,1.9
2024-02-13T04:37:05.245Z,1.9
2024-02-13T04:40:05.399Z,1.9
2024-02-13T04:43:05.279Z,1.9
2024-02-13T04:46:05.227Z,1.9
2024-02-13T04:49:05.840Z,1.9
2024-02-13T04:52:05.379Z,1.9
2024-02-13T04:55:05.417Z,1.8
2024-02-13T04:58:05.173Z,1.7
2024-02-13T05:01:05.354Z,1.8
2024-02-13T05:04:05.630Z,1.8
2024-02-13T05:07:05.657Z,1.7
2024-02-13T05:10:05.294Z,1.7
2024-02-13T05:13:05.254Z,1.7
2024-02-13T05:16:05.124Z,1.6
2024-02-13T05:19:05.979Z,1.7
2024-02-13T05:22:05.300Z,1.7
2024-02-13T05:25:05.369Z,1.6
2024-02-13T05:28:05.307Z,1.6
2024-02-13T05:31:05.766Z,1.6
2024-02-13T05:34:05.898Z,1.7
2024-02-13T05:37:05.196Z,1.5
2024-02-13T05:40:05.164Z,1.3
2024-02-13T05:43:05.128Z,1.1
2024-02-13T05:46:05.132Z,1.1
2024-02-13T05:49:05.588Z,1.2
2024-02-13T05:52:05.123Z,1.3
2024-02-13T06:22:05.282Z,1.3
2024-02-13T06:25:05.398Z,1.4
2024-02-13T06:28:05.110Z,1.5
2024-02-13T06:31:05.469Z,1.5
2024-02-13T06:34:06.091Z,1.5
2024-02-13T06:37:05.417Z,1.5
2024-02-13T06:40:05.475Z,1.5
2024-02-13T06:43:10.160Z,1.3
2024-02-13T06:46:05.238Z,1.3
2024-02-13T06:49:06.639Z,1.4
2024-02-13T06:52:05.571Z,1.3
2024-02-13T06:55:07.414Z,1.4
2024-02-13T06:58:05.199Z,1.4
2024-02-13T07:01:10.527Z,1.4
2024-02-13T07:04:05.293Z,1.3
2024-02-13T07:10:05.911Z,1.2
2024-02-13T07:13:05.091Z,1.3
2024-02-13T07:16:05.749Z,1.2
2024-02-13T07:19:07.421Z,1.1
2024-02-13T07:22:15.825Z,1.1
2024-02-13T07:25:05.127Z,1.1
2024-02-13T07:28:08.258Z,1.0
2024-02-13T07:31:05.573Z,1.0
2024-02-13T07:34:06.320Z,1.0
2024-02-13T07:37:05.310Z,1.0
2024-02-13T07:40:05.400Z,0.9
2024-02-13T07:43:05.092Z,1.0
2024-02-13T07:46:05.395Z,1.1
2024-02-13T07:49:06.436Z,1.3
2024-02-13T07:52:05.187Z,1.4
2024-02-13T07:55:05.254Z,1.5
2024-02-13T07:58:05.169Z,1.6
2024-02-13T08:01:05.408Z,1.6
2024-02-13T08:04:05.213Z,1.6
2024-02-13T08:07:05.613Z,1.6
2024-02-13T08:10:05.210Z,1.6
2024-02-13T08:13:05.672Z,1.7
2024-02-13T08:16:05.346Z,1.6
2024-02-13T08:19:05.624Z,1.6
2024-02-13T08:22:05.278Z,1.7
2024-02-13T08:25:07.619Z,1.7
2024-02-13T08:28:05.422Z,1.7
2024-02-13T08:31:05.461Z,1.7
2024-02-13T08:34:06.619Z,1.6
2024-02-13T08:37:05.410Z,1.7
2024-02-13T08:40:05.193Z,1.7
2024-02-13T08:43:05.432Z,1.9
2024-02-13T08:46:05.226Z,2.0
2024-02-13T08:49:06.744Z,2.0
2024-02-13T08:52:10.136Z,1.9
2024-02-13T08:55:05.289Z,2.0
2024-02-13T08:58:05.224Z,1.9
2024-02-13T09:01:06.261Z,1.9
2024-02-13T09:04:05.208Z,2.0
2024-02-13T09:07:07.391Z,2.0
2024-02-13T09:10:05.439Z,2.1
2024-02-13T09:13:05.378Z,2.2
2024-02-13T09:16:05.189Z,2.4
2024-02-13T09:19:06.199Z,2.5
2024-02-13T09:22:05.202Z,2.5
2024-02-13T09:25:05.265Z,2.5
2024-02-13T09:28:05.331Z,2.6
2024-02-13T09:31:05.346Z,2.6
2024-02-13T09:34:06.034Z,2.6
2024-02-13T09:37:05.143Z,2.5
2024-02-13T09:40:06.249Z,2.7
2024-02-13T09:43:05.228Z,2.8
2024-02-13T09:46:05.244Z,2.8
2024-02-13T09:49:06.884Z,2.9
2024-02-13T09:52:05.205Z,2.7
2024-02-13T09:55:05.316Z,2.8
2024-02-13T09:58:05.235Z,2.7
2024-02-13T10:01:05.544Z,2.8
2024-02-13T10:04:05.529Z,2.7
2024-02-13T10:07:05.954Z,2.6
2024-02-13T10:10:05.236Z,2.5
2024-02-13T10:13:05.218Z,2.4
2024-02-13T10:16:05.384Z,2.4
2024-02-13T10:19:06.425Z,2.5
2024-02-13T10:22:05.156Z,2.5
2024-02-13T10:25:05.867Z,2.6
2024-02-13T10:28:05.288Z,2.7
2024-02-13T10:31:05.354Z,2.9
2024-02-13T10:34:05.608Z,2.9
2024-02-13T10:37:05.473Z,2.9
2024-02-13T10:40:05.259Z,3.0
2024-02-13T10:43:05.277Z,3.1
2024-02-13T10:46:05.293Z,3.0
2024-02-13T10:49:05.809Z,3.0
2024-02-13T10:52:05.261Z,3.0
2024-02-13T10:55:05.313Z,3.3
2024-02-13T10:58:09.366Z,3.2
2024-02-13T11:01:05.695Z,3.2
2024-02-13T11:04:05.833Z,3.2
2024-02-13T11:07:05.791Z,3.3
2024-02-13T11:10:05.280Z,3.2
2024-02-13T11:13:05.501Z,3.3
2024-02-13T11:16:05.294Z,3.3
2024-02-13T11:19:06.545Z,3.2
2024-02-13T11:22:05.262Z,3.4
2024-02-13T11:25:05.930Z,3.4
2024-02-13T11:28:17.486Z,3.5
2024-02-13T11:31:07.011Z,3.8
2024-02-13T11:34:06.514Z,4.1
2024-02-13T11:37:06.706Z,3.8
2024-02-13T11:40:05.315Z,3.9
2024-02-13T11:43:05.170Z,3.6
2024-02-13T11:46:05.181Z,3.7
2024-02-13T11:49:08.144Z,3.6
2024-02-13T11:52:05.149Z,3.6
2024-02-13T11:55:05.172Z,3.4
2024-02-13T11:58:05.593Z,3.4
2024-02-13T12:01:06.123Z,3.4
2024-02-13T12:04:05.515Z,3.4
2024-02-13T12:07:05.383Z,3.4
2024-02-13T12:10:05.236Z,3.5
2024-02-13T12:13:05.174Z,3.6
2024-02-13T12:16:05.261Z,3.5
2024-02-13T12:19:06.314Z,3.4
2024-02-13T12:22:05.339Z,3.6
2024-02-13T12:25:05.224Z,3.5
2024-02-13T12:28:05.549Z,3.6
2024-02-13T12:31:05.357Z,3.8
2024-02-13T12:34:06.403Z,3.9
2024-02-13T12:37:05.233Z,3.9
2024-02-13T12:40:05.447Z,3.9
2024-02-13T12:43:07.477Z,4.0
2024-02-13T12:46:05.345Z,3.8
2024-02-13T12:49:12.238Z,3.6
2024-02-13T12:52:05.647Z,3.4
2024-02-13T12:55:06.261Z,3.5
2024-02-13T12:58:05.276Z,3.7
2024-02-13T13:01:05.934Z,3.6
2024-02-13T13:04:05.255Z,3.7
2024-02-13T13:07:05.518Z,3.8
2024-02-13T13:10:15.660Z,3.8
2024-02-13T13:13:06.132Z,3.6
2024-02-13T13:16:14.616Z,3.6
2024-02-13T13:19:08.699Z,3.6
2024-02-13T13:22:05.314Z,3.8
2024-02-13T13:25:05.416Z,3.8
2024-02-13T13:28:05.181Z,3.7
2024-02-13T13:31:05.902Z,3.6
2024-02-13T13:34:06.291Z,3.6
2024-02-13T13:37:05.922Z,3.6
2024-02-13T13:40:05.448Z,3.7
2024-02-13T13:43:06.066Z,3.8
2024-02-13T13:46:05.206Z,3.9
2024-02-13T13:49:06.632Z,3.9
2024-02-13T13:52:05.341Z,4.0
2024-02-13T13:55:05.825Z,4.2
2024-02-13T13:58:05.216Z,4.0
2024-02-13T14:01:05.417Z,4.0
2024-02-13T14:04:05.282Z,4.2
2024-02-13T14:07:06.007Z,4.0
2024-02-13T14:10:05.233Z,4.0
2024-02-13T14:13:05.315Z,4.1
2024-02-13T14:16:05.165Z,3.9
2024-02-13T14:19:05.838Z,3.9
2024-02-13T14:22:05.266Z,3.8
2024-02-13T14:25:05.342Z,3.7
2024-02-13T14:28:05.220Z,3.7
2024-02-13T14:31:05.520Z,3.7
2024-02-13T14:34:06.740Z,3.8
2024-02-13T14:37:06.299Z,3.7
2024-02-13T14:40:05.361Z,3.8
2024-02-13T14:43:05.231Z,3.8
2024-02-13T14:46:05.300Z,3.8
2024-02-13T14:49:06.032Z,3.6
2024-02-13T14:52:05.379Z,3.4
2024-02-13T14:55:05.366Z,3.3
2024-02-13T15:01:09.298Z,3.4
2024-02-13T15:04:05.384Z,3.4
2024-02-13T15:07:05.964Z,3.2
2024-02-13T15:10:05.235Z,3.3
2024-02-13T15:13:05.188Z,3.5
2024-02-13T15:16:05.776Z,3.4
2024-02-13T15:19:06.986Z,3.4
2024-02-13T15:22:05.332Z,3.4
2024-02-13T15:25:05.313Z,3.4
2024-02-13T15:28:05.270Z,3.3
2024-02-13T15:31:08.092Z,3.5
2024-02-13T15:34:06.062Z,3.3
2024-02-13T15:37:05.973Z,3.2
2024-02-13T15:40:05.235Z,3.2
2024-02-13T15:43:05.459Z,2.9
2024-02-13T15:46:05.211Z,2.8
2024-02-13T15:49:06.032Z,2.8
2024-02-13T15:52:05.142Z,3.0
2024-02-13T15:55:05.329Z,3.1
2024-02-13T15:58:05.244Z,2.9
2024-02-13T16:01:05.488Z,3.0
2024-02-13T16:04:05.337Z,3.1
2024-02-13T16:07:05.613Z,3.1
2024-02-13T16:10:05.402Z,2.9
2024-02-13T16:13:05.325Z,3.3
2024-02-13T16:16:05.200Z,3.3
2024-02-13T16:19:06.469Z,3.4
2024-02-13T16:22:05.203Z,3.2
2024-02-13T16:25:05.259Z,2.9
2024-02-13T16:28:05.479Z,2.8
2024-02-13T16:31:05.442Z,2.6
2024-02-13T16:34:05.941Z,2.8
2024-02-13T16:37:05.341Z,2.6
2024-02-13T16:40:05.237Z,2.9
2024-02-13T16:43:07.539Z,3.2
2024-02-13T16:46:05.407Z,3.1
2024-02-13T16:49:10.581Z,3.2
2024-02-13T16:52:05.216Z,3.0
2024-02-13T16:55:09.293Z,3.5
2024-02-13T16:58:05.309Z,3.5
2024-02-13T17:04:05.775Z,3.6
2024-02-13T17:07:06.246Z,3.8
2024-02-13T17:10:05.244Z,4.0
2024-02-13T17:13:05.224Z,4.2
2024-02-13T17:16:05.300Z,4.3
2024-02-13T17:19:06.019Z,4.2
2024-02-13T17:22:05.198Z,4.2
2024-02-13T17:25:05.379Z,4.0
2024-02-13T17:28:05.153Z,4.0
2024-02-13T17:31:05.476Z,4.2
2024-02-13T17:34:08.697Z,4.2
2024-02-13T17:37:05.158Z,4.4
2024-02-13T17:40:05.262Z,4.5
2024-02-13T17:43:05.260Z,4.5
2024-02-13T17:46:05.272Z,4.5
2024-02-13T17:49:06.020Z,4.2
2024-02-13T17:52:05.139Z,3.9
2024-02-13T17:55:07.574Z,3.7
2024-02-13T17:58:05.212Z,3.6
2024-02-13T18:01:07.990Z,3.6
2024-02-13T18:04:05.687Z,3.6
2024-02-13T18:34:06.353Z,3.9
2024-02-13T18:37:05.276Z,4.1
2024-02-13T18:49:05.857Z,4.4
2024-02-13T18:52:08.933Z,4.7
2024-02-13T18:55:05.293Z,4.8
2024-02-13T18:58:05.180Z,4.9
2024-02-13T19:01:05.891Z,5.0
2024-02-13T19:04:05.213Z,5.0
2024-02-13T19:07:05.790Z,5.1
2024-02-13T19:13:05.151Z,4.9
2024-02-13T19:19:05.843Z,5.0
2024-02-13T19:22:05.193Z,5.0
2024-02-13T19:25:05.147Z,5.2
2024-02-13T19:40:05.867Z,5.0
2024-02-13T19:43:05.253Z,5.0
2024-02-13T19:46:05.529Z,4.9
2024-02-13T19:49:05.833Z,5.0
2024-02-13T19:58:05.251Z,4.8
2024-02-13T20:01:05.742Z,4.9
2024-02-13T20:04:05.696Z,5.0
2024-02-13T20:07:06.035Z,5.0
2024-02-13T20:13:05.211Z,4.9
2024-02-13T20:16:05.468Z,5.0
2024-02-13T20:19:06.109Z,5.1
2024-02-13T20:28:05.216Z,4.7
2024-02-13T20:31:05.730Z,4.6
2024-02-13T20:34:08.457Z,4.8
2024-02-13T20:37:05.797Z,4.9
2024-02-13T20:40:06.387Z,4.9
2024-02-13T20:43:05.091Z,5.0
2024-02-13T20:49:05.691Z,4.9
2024-02-13T20:52:05.361Z,4.8
2024-02-13T20:55:05.658Z,4.9
2024-02-13T20:58:06.596Z,4.9
2024-02-13T21:01:05.586Z,4.9
2024-02-13T21:04:05.698Z,4.7
2024-02-13T21:07:05.617Z,4.8
2024-02-13T21:10:05.232Z,4.8
2024-02-13T21:13:05.246Z,4.8
2024-02-13T21:16:05.585Z,4.8
2024-02-13T21:19:05.915Z,4.7
2024-02-13T21:22:05.291Z,4.7
2024-02-13T21:25:05.342Z,4.8
2024-02-13T21:28:05.266Z,4.9
2024-02-13T21:31:05.736Z,4.8
2024-02-13T21:49:06.081Z,4.4
2024-02-13T21:52:05.407Z,4.7
2024-02-13T21:55:05.293Z,4.6
2024-02-13T21:58:05.400Z,4.8
2024-02-13T22:01:05.548Z,4.6
2024-02-13T22:04:05.393Z,4.6
2024-02-13T22:07:05.696Z,4.7
2024-02-13T22:10:05.489Z,4.7
2024-02-13T22:13:05.426Z,4.7
2024-02-13T22:16:05.406Z,4.9
2024-02-13T22:19:06.064Z,4.8
2024-02-13T22:22:05.747Z,5.1
2024-02-13T22:25:05.198Z,4.9
2024-02-13T22:28:05.126Z,5.1
2024-02-13T22:31:05.534Z,5.3
2024-02-13T22:46:05.432Z,5.4
2024-02-13T23:07:05.877Z,5.6
2024-02-13T23:10:05.484Z,5.7
2024-02-13T23:13:05.558Z,5.7
2024-02-13T23:19:05.865Z,5.7
2024-02-13T23:22:05.305Z,5.7
2024-02-13T23:25:05.200Z,5.8
2024-02-13T23:28:05.282Z,5.8
2024-02-13T23:31:05.433Z,5.8
2024-02-13T23:34:06.798Z,5.8
2024-02-13T23:37:05.445Z,5.8
2024-02-13T23:40:05.490Z,5.8
2024-02-13T23:43:05.454Z,5.8
2024-02-13T23:46:05.342Z,5.8
2024-02-13T23:49:05.944Z,5.9
2024-02-13T23:52:05.242Z,5.9
2024-02-13T23:55:05.315Z,6.0
2024-02-13T23:58:05.208Z,6.0
